sensor_id;sensor_type;location;lat;lon;timestamp;temperature;humidity
13673;DHT22;6909;52.202;9.876;2023-04-16T00:00:37;9.20;99.90
13673;DHT22;6909;52.202;9.876;2023-04-16T00:03:03;9.10;99.90
13673;DHT22;6909;52.202;9.876;2023-04-16T00:05:30;9.10;99.90
13673;DHT22;6909;52.202;9.876;2023-04-16T00:07:57;9.10;99.90
13673;DHT22;6909;52.202;9.876;2023-04-16T00:10:23;9.10;99.90
13673;DHT22;6909;52.202;9.876;2023-04-16T00:12:50;9.20;99.90
13673;DHT22;6909;52.202;9.876;2023-04-16T00:15:18;9.10;99.90
13673;DHT22;6909;52.202;9.876;2023-04-16T00:17:45;9.10;99.90
13673;DHT22;6909;52.202;9.876;2023-04-16T00:20:11;9.10;99.90
13673;DHT22;6909;52.202;9.876;2023-04-16T00:22:38;9.10;99.90
13673;DHT22;6909;52.202;9.876;2023-04-16T00:25:05;9.10;99.90
13673;DHT22;6909;52.202;9.876;2023-04-16T00:27:32;9.10;99.90
13673;DHT22;6909;52.202;9.876;2023-04-16T00:29:58;9.10;99.90
13673;DHT22;6909;52.202;9.876;2023-04-16T00:32:26;9.10;99.90
13673;DHT22;6909;52.202;9.876;2023-04-16T00:34:53;9.10;99.90
13673;DHT22;6909;52.202;9.876;2023-04-16T00:37:19;9.10;99.90
13673;DHT22;6909;52.202;9.876;2023-04-16T00:39:46;9.00;99.90
13673;DHT22;6909;52.202;9.876;2023-04-16T00:42:13;9.00;99.90
13673;DHT22;6909;52.202;9.876;2023-04-16T00:44:39;9.00;99.90
13673;DHT22;6909;52.202;9.876;2023-04-16T00:47:06;9.00;99.90
13673;DHT22;6909;52.202;9.876;2023-04-16T00:49:35;9.00;99.90
13673;DHT22;6909;52.202;9.876;2023-04-16T00:52:02;9.10;99.90
13673;DHT22;6909;52.202;9.876;2023-04-16T00:54:28;9.00;99.90
13673;DHT22;6909;52.202;9.876;2023-04-16T00:56:57;9.00;99.90
13673;DHT22;6909;52.202;9.876;2023-04-16T00:59:24;9.00;99.90
13673;DHT22;6909;52.202;9.876;2023-04-16T01:01:50;9.00;99.90
13673;DHT22;6909;52.202;9.876;2023-04-16T01:04:17;9.00;99.90
13673;DHT22;6909;52.202;9.876;2023-04-16T01:06:45;9.00;99.90
13673;DHT22;6909;52.202;9.876;2023-04-16T01:09:12;9.00;99.90
13673;DHT22;6909;52.202;9.876;2023-04-16T01:11:38;9.00;99.90
13673;DHT22;6909;52.202;9.876;2023-04-16T01:14:05;9.00;99.90
13673;DHT22;6909;52.202;9.876;2023-04-16T01:16:32;9.00;99.90
13673;DHT22;6909;52.202;9.876;2023-04-16T01:18:58;9.00;99.90
13673;DHT22;6909;52.202;9.876;2023-04-16T01:21:26;9.00;99.90
13673;DHT22;6909;52.202;9.876;2023-04-16T01:23:53;8.90;99.90
13673;DHT22;6909;52.202;9.876;2023-04-16T01:26:20;8.90;99.90
13673;DHT22;6909;52.202;9.876;2023-04-16T01:28:47;8.90;99.90
13673;DHT22;6909;52.202;9.876;2023-04-16T01:31:13;8.90;99.90
13673;DHT22;6909;52.202;9.876;2023-04-16T01:33:40;8.90;99.90
13673;DHT22;6909;52.202;9.876;2023-04-16T01:36:07;8.90;99.90
13673;DHT22;6909;52.202;9.876;2023-04-16T01:38:35;8.90;99.90
13673;DHT22;6909;52.202;9.876;2023-04-16T01:41:01;8.80;99.90
13673;DHT22;6909;52.202;9.876;2023-04-16T01:43:28;8.90;99.90
13673;DHT22;6909;52.202;9.876;2023-04-16T01:46:11;8.90;99.90
13673;DHT22;6909;52.202;9.876;2023-04-16T01:48:38;8.90;99.90
13673;DHT22;6909;52.202;9.876;2023-04-16T01:51:05;8.80;99.90
13673;DHT22;6909;52.202;9.876;2023-04-16T01:53:32;8.80;99.90
13673;DHT22;6909;52.202;9.876;2023-04-16T01:56:00;8.80;99.90
13673;DHT22;6909;52.202;9.876;2023-04-16T01:58:27;8.80;99.90
13673;DHT22;6909;52.202;9.876;2023-04-16T02:00:54;8.80;99.90
13673;DHT22;6909;52.202;9.876;2023-04-16T02:03:21;8.80;99.90
13673;DHT22;6909;52.202;9.876;2023-04-16T02:05:49;8.70;99.90
13673;DHT22;6909;52.202;9.876;2023-04-16T02:08:16;8.70;99.90
13673;DHT22;6909;52.202;9.876;2023-04-16T02:10:45;8.70;99.90
13673;DHT22;6909;52.202;9.876;2023-04-16T02:13:13;8.70;99.90
13673;DHT22;6909;52.202;9.876;2023-04-16T02:15:43;8.60;99.90
13673;DHT22;6909;52.202;9.876;2023-04-16T02:18:10;8.60;99.90
13673;DHT22;6909;52.202;9.876;2023-04-16T02:20:39;8.60;99.90
13673;DHT22;6909;52.202;9.876;2023-04-16T02:23:06;8.50;99.90
13673;DHT22;6909;52.202;9.876;2023-04-16T02:25:37;8.50;99.90
13673;DHT22;6909;52.202;9.876;2023-04-16T02:28:05;8.50;99.90
13673;DHT22;6909;52.202;9.876;2023-04-16T02:30:33;8.50;99.90
13673;DHT22;6909;52.202;9.876;2023-04-16T02:33:00;8.50;99.90
13673;DHT22;6909;52.202;9.876;2023-04-16T02:35:28;8.50;99.90
13673;DHT22;6909;52.202;9.876;2023-04-16T02:37:54;8.40;99.90
13673;DHT22;6909;52.202;9.876;2023-04-16T02:40:21;8.40;99.90
13673;DHT22;6909;52.202;9.876;2023-04-16T02:42:47;8.40;99.90
13673;DHT22;6909;52.202;9.876;2023-04-16T02:45:14;8.40;99.90
13673;DHT22;6909;52.202;9.876;2023-04-16T02:47:43;8.40;99.90
13673;DHT22;6909;52.202;9.876;2023-04-16T02:50:10;8.40;99.90
13673;DHT22;6909;52.202;9.876;2023-04-16T02:52:36;8.30;99.90
13673;DHT22;6909;52.202;9.876;2023-04-16T02:55:04;8.40;99.90
13673;DHT22;6909;52.202;9.876;2023-04-16T02:57:30;8.30;99.90
13673;DHT22;6909;52.202;9.876;2023-04-16T02:59:57;8.30;99.90
13673;DHT22;6909;52.202;9.876;2023-04-16T03:02:24;8.30;99.90
13673;DHT22;6909;52.202;9.876;2023-04-16T03:04:52;8.30;99.90
13673;DHT22;6909;52.202;9.876;2023-04-16T03:07:18;8.30;99.90
13673;DHT22;6909;52.202;9.876;2023-04-16T03:09:45;8.30;99.90
13673;DHT22;6909;52.202;9.876;2023-04-16T03:12:12;8.30;99.90
13673;DHT22;6909;52.202;9.876;2023-04-16T03:14:38;8.20;99.90
13673;DHT22;6909;52.202;9.876;2023-04-16T03:17:05;8.20;99.90
13673;DHT22;6909;52.202;9.876;2023-04-16T03:19:32;8.10;99.90
13673;DHT22;6909;52.202;9.876;2023-04-16T03:22:00;8.10;99.90
13673;DHT22;6909;52.202;9.876;2023-04-16T03:24:26;8.10;99.90
13673;DHT22;6909;52.202;9.876;2023-04-16T03:26:54;8.10;99.90
13673;DHT22;6909;52.202;9.876;2023-04-16T03:29:22;8.10;99.90
13673;DHT22;6909;52.202;9.876;2023-04-16T03:31:49;8.10;99.90
13673;DHT22;6909;52.202;9.876;2023-04-16T03:34:15;8.10;99.90
13673;DHT22;6909;52.202;9.876;2023-04-16T03:36:42;8.10;99.90
13673;DHT22;6909;52.202;9.876;2023-04-16T03:39:10;8.10;99.90
13673;DHT22;6909;52.202;9.876;2023-04-16T03:41:37;8.10;99.90
13673;DHT22;6909;52.202;9.876;2023-04-16T03:44:03;8.10;99.90
13673;DHT22;6909;52.202;9.876;2023-04-16T03:46:30;8.10;99.90
13673;DHT22;6909;52.202;9.876;2023-04-16T03:48:57;8.00;99.90
13673;DHT22;6909;52.202;9.876;2023-04-16T03:51:23;8.00;99.90
13673;DHT22;6909;52.202;9.876;2023-04-16T03:53:50;8.00;99.90
13673;DHT22;6909;52.202;9.876;2023-04-16T03:56:18;7.90;99.90
13673;DHT22;6909;52.202;9.876;2023-04-16T03:58:45;8.00;99.90
13673;DHT22;6909;52.202;9.876;2023-04-16T04:01:11;8.00;99.90
13673;DHT22;6909;52.202;9.876;2023-04-16T04:03:38;8.00;99.90
13673;DHT22;6909;52.202;9.876;2023-04-16T04:06:06;7.80;99.90
13673;DHT22;6909;52.202;9.876;2023-04-16T04:08:33;7.80;99.90
13673;DHT22;6909;52.202;9.876;2023-04-16T04:10:59;7.80;99.90
13673;DHT22;6909;52.202;9.876;2023-04-16T04:13:27;7.80;99.90
13673;DHT22;6909;52.202;9.876;2023-04-16T04:15:54;7.80;99.90
13673;DHT22;6909;52.202;9.876;2023-04-16T04:18:20;7.80;99.90
13673;DHT22;6909;52.202;9.876;2023-04-16T04:20:47;7.80;99.90
13673;DHT22;6909;52.202;9.876;2023-04-16T04:23:14;7.80;99.90
13673;DHT22;6909;52.202;9.876;2023-04-16T04:25:40;7.70;99.90
13673;DHT22;6909;52.202;9.876;2023-04-16T04:28:07;7.70;99.90
13673;DHT22;6909;52.202;9.876;2023-04-16T04:30:35;7.70;99.90
13673;DHT22;6909;52.202;9.876;2023-04-16T04:33:02;7.70;99.90
13673;DHT22;6909;52.202;9.876;2023-04-16T04:35:28;7.70;99.90
13673;DHT22;6909;52.202;9.876;2023-04-16T04:37:55;7.70;99.90
13673;DHT22;6909;52.202;9.876;2023-04-16T04:40:22;7.60;99.90
13673;DHT22;6909;52.202;9.876;2023-04-16T04:42:49;7.60;99.90
13673;DHT22;6909;52.202;9.876;2023-04-16T04:45:15;7.60;99.90
13673;DHT22;6909;52.202;9.876;2023-04-16T04:47:43;7.60;99.90
13673;DHT22;6909;52.202;9.876;2023-04-16T04:50:10;7.60;99.90
13673;DHT22;6909;52.202;9.876;2023-04-16T04:52:37;7.70;99.90
13673;DHT22;6909;52.202;9.876;2023-04-16T04:55:04;7.60;99.90
13673;DHT22;6909;52.202;9.876;2023-04-16T04:57:30;7.60;99.90
13673;DHT22;6909;52.202;9.876;2023-04-16T04:59:57;7.70;99.90
13673;DHT22;6909;52.202;9.876;2023-04-16T05:02:24;7.70;99.90
13673;DHT22;6909;52.202;9.876;2023-04-16T05:04:52;7.60;99.90
13673;DHT22;6909;52.202;9.876;2023-04-16T05:07:20;7.60;99.90
13673;DHT22;6909;52.202;9.876;2023-04-16T05:09:46;7.60;99.90
13673;DHT22;6909;52.202;9.876;2023-04-16T05:12:13;7.60;99.90
13673;DHT22;6909;52.202;9.876;2023-04-16T05:14:39;7.70;99.90
13673;DHT22;6909;52.202;9.876;2023-04-16T05:17:06;7.70;99.90
13673;DHT22;6909;52.202;9.876;2023-04-16T05:19:35;7.80;99.90
13673;DHT22;6909;52.202;9.876;2023-04-16T05:22:03;7.80;99.90
13673;DHT22;6909;52.202;9.876;2023-04-16T05:24:30;7.70;99.90
13673;DHT22;6909;52.202;9.876;2023-04-16T05:26:56;7.80;99.90
13673;DHT22;6909;52.202;9.876;2023-04-16T05:29:23;7.70;99.90
13673;DHT22;6909;52.202;9.876;2023-04-16T05:31:50;7.80;99.90
13673;DHT22;6909;52.202;9.876;2023-04-16T05:34:16;7.80;99.90
13673;DHT22;6909;52.202;9.876;2023-04-16T05:36:43;7.80;99.90
13673;DHT22;6909;52.202;9.876;2023-04-16T05:39:11;7.70;99.90
13673;DHT22;6909;52.202;9.876;2023-04-16T05:41:38;7.70;99.90
13673;DHT22;6909;52.202;9.876;2023-04-16T05:44:04;7.70;99.90
13673;DHT22;6909;52.202;9.876;2023-04-16T05:46:31;7.70;99.90
13673;DHT22;6909;52.202;9.876;2023-04-16T05:48:58;7.70;99.90
13673;DHT22;6909;52.202;9.876;2023-04-16T05:51:24;7.70;99.90
13673;DHT22;6909;52.202;9.876;2023-04-16T05:53:52;7.70;99.90
13673;DHT22;6909;52.202;9.876;2023-04-16T05:56:20;7.70;99.90
13673;DHT22;6909;52.202;9.876;2023-04-16T05:58:47;7.70;99.90
13673;DHT22;6909;52.202;9.876;2023-04-16T06:01:14;7.70;99.90
13673;DHT22;6909;52.202;9.876;2023-04-16T06:03:40;7.70;99.90
13673;DHT22;6909;52.202;9.876;2023-04-16T06:06:07;7.70;99.90
13673;DHT22;6909;52.202;9.876;2023-04-16T06:08:34;7.80;99.90
13673;DHT22;6909;52.202;9.876;2023-04-16T06:11:00;7.80;99.90
13673;DHT22;6909;52.202;9.876;2023-04-16T06:13:28;7.90;99.90
13673;DHT22;6909;52.202;9.876;2023-04-16T06:15:55;7.90;99.90
13673;DHT22;6909;52.202;9.876;2023-04-16T06:18:22;7.90;99.90
13673;DHT22;6909;52.202;9.876;2023-04-16T06:20:48;7.90;99.90
13673;DHT22;6909;52.202;9.876;2023-04-16T06:23:15;8.00;99.90
13673;DHT22;6909;52.202;9.876;2023-04-16T06:25:42;7.90;99.90
13673;DHT22;6909;52.202;9.876;2023-04-16T06:28:08;7.90;99.90
13673;DHT22;6909;52.202;9.876;2023-04-16T06:30:36;7.90;99.90
13673;DHT22;6909;52.202;9.876;2023-04-16T06:33:04;8.00;99.90
13673;DHT22;6909;52.202;9.876;2023-04-16T06:35:31;8.00;99.90
13673;DHT22;6909;52.202;9.876;2023-04-16T06:37:57;8.00;99.90
13673;DHT22;6909;52.202;9.876;2023-04-16T06:40:24;8.00;99.90
13673;DHT22;6909;52.202;9.876;2023-04-16T06:42:51;8.00;99.90
13673;DHT22;6909;52.202;9.876;2023-04-16T06:45:17;8.10;99.90
13673;DHT22;6909;52.202;9.876;2023-04-16T06:47:45;8.00;99.90
13673;DHT22;6909;52.202;9.876;2023-04-16T06:50:12;8.10;99.90
13673;DHT22;6909;52.202;9.876;2023-04-16T06:52:39;8.20;99.90
13673;DHT22;6909;52.202;9.876;2023-04-16T06:55:06;8.20;99.90
13673;DHT22;6909;52.202;9.876;2023-04-16T06:57:34;8.20;99.90
13673;DHT22;6909;52.202;9.876;2023-04-16T07:00:01;8.20;99.90
13673;DHT22;6909;52.202;9.876;2023-04-16T07:02:27;8.20;99.90
13673;DHT22;6909;52.202;9.876;2023-04-16T07:04:55;8.20;99.90
13673;DHT22;6909;52.202;9.876;2023-04-16T07:07:22;8.30;99.90
13673;DHT22;6909;52.202;9.876;2023-04-16T07:09:49;8.40;99.90
13673;DHT22;6909;52.202;9.876;2023-04-16T07:12:16;8.30;99.90
13673;DHT22;6909;52.202;9.876;2023-04-16T07:14:43;8.30;99.90
13673;DHT22;6909;52.202;9.876;2023-04-16T07:17:09;8.40;99.90
13673;DHT22;6909;52.202;9.876;2023-04-16T07:19:36;8.40;99.90
13673;DHT22;6909;52.202;9.876;2023-04-16T07:22:04;8.40;99.90
13673;DHT22;6909;52.202;9.876;2023-04-16T07:24:31;8.40;99.90
13673;DHT22;6909;52.202;9.876;2023-04-16T07:26:57;8.40;99.90
13673;DHT22;6909;52.202;9.876;2023-04-16T07:29:24;8.50;99.90
13673;DHT22;6909;52.202;9.876;2023-04-16T07:31:51;8.60;99.90
13673;DHT22;6909;52.202;9.876;2023-04-16T07:34:17;8.60;99.90
13673;DHT22;6909;52.202;9.876;2023-04-16T07:36:44;8.60;99.90
13673;DHT22;6909;52.202;9.876;2023-04-16T07:39:12;8.60;99.90
13673;DHT22;6909;52.202;9.876;2023-04-16T07:41:39;8.60;99.90
13673;DHT22;6909;52.202;9.876;2023-04-16T07:44:05;8.60;99.90
13673;DHT22;6909;52.202;9.876;2023-04-16T07:46:32;8.60;99.90
13673;DHT22;6909;52.202;9.876;2023-04-16T07:48:59;8.60;99.90
13673;DHT22;6909;52.202;9.876;2023-04-16T07:51:26;8.70;99.90
13673;DHT22;6909;52.202;9.876;2023-04-16T07:53:52;8.80;99.90
13673;DHT22;6909;52.202;9.876;2023-04-16T07:56:20;8.90;99.90
13673;DHT22;6909;52.202;9.876;2023-04-16T07:58:47;8.90;99.90
13673;DHT22;6909;52.202;9.876;2023-04-16T08:01:13;9.00;99.90
13673;DHT22;6909;52.202;9.876;2023-04-16T08:03:41;9.20;99.90
13673;DHT22;6909;52.202;9.876;2023-04-16T08:06:08;9.20;99.90
13673;DHT22;6909;52.202;9.876;2023-04-16T08:08:34;9.30;99.90
13673;DHT22;6909;52.202;9.876;2023-04-16T08:11:01;9.20;99.90
13673;DHT22;6909;52.202;9.876;2023-04-16T08:13:29;9.30;99.90
13673;DHT22;6909;52.202;9.876;2023-04-16T08:15:56;9.40;99.90
13673;DHT22;6909;52.202;9.876;2023-04-16T08:18:22;9.30;99.90
13673;DHT22;6909;52.202;9.876;2023-04-16T08:20:49;9.30;99.90
13673;DHT22;6909;52.202;9.876;2023-04-16T08:23:16;9.40;99.90
13673;DHT22;6909;52.202;9.876;2023-04-16T08:25:43;9.40;99.90
13673;DHT22;6909;52.202;9.876;2023-04-16T08:28:09;9.50;99.90
13673;DHT22;6909;52.202;9.876;2023-04-16T08:30:37;9.60;99.90
13673;DHT22;6909;52.202;9.876;2023-04-16T08:33:04;9.60;99.90
13673;DHT22;6909;52.202;9.876;2023-04-16T08:35:31;9.50;99.90
13673;DHT22;6909;52.202;9.876;2023-04-16T08:37:57;9.50;99.90
13673;DHT22;6909;52.202;9.876;2023-04-16T08:40:27;9.50;99.90
13673;DHT22;6909;52.202;9.876;2023-04-16T08:42:57;9.40;99.90
13673;DHT22;6909;52.202;9.876;2023-04-16T08:45:25;9.50;99.90
13673;DHT22;6909;52.202;9.876;2023-04-16T08:47:53;9.60;99.90
13673;DHT22;6909;52.202;9.876;2023-04-16T08:50:22;9.80;99.90
13673;DHT22;6909;52.202;9.876;2023-04-16T08:52:51;9.90;99.90
13673;DHT22;6909;52.202;9.876;2023-04-16T08:55:20;10.10;99.90
13673;DHT22;6909;52.202;9.876;2023-04-16T08:57:51;10.30;99.90
13673;DHT22;6909;52.202;9.876;2023-04-16T09:00:19;10.40;99.90
13673;DHT22;6909;52.202;9.876;2023-04-16T09:02:46;10.40;99.90
13673;DHT22;6909;52.202;9.876;2023-04-16T09:05:16;10.20;99.90
13673;DHT22;6909;52.202;9.876;2023-04-16T09:07:45;10.10;99.90
13673;DHT22;6909;52.202;9.876;2023-04-16T09:10:14;10.10;99.90
13673;DHT22;6909;52.202;9.876;2023-04-16T09:12:41;10.10;99.90
13673;DHT22;6909;52.202;9.876;2023-04-16T09:15:10;10.10;99.90
13673;DHT22;6909;52.202;9.876;2023-04-16T09:17:37;10.00;99.90
13673;DHT22;6909;52.202;9.876;2023-04-16T09:20:05;10.10;99.90
13673;DHT22;6909;52.202;9.876;2023-04-16T09:22:36;10.00;99.90
13673;DHT22;6909;52.202;9.876;2023-04-16T09:25:05;10.00;99.90
13673;DHT22;6909;52.202;9.876;2023-04-16T09:27:32;10.00;99.90
13673;DHT22;6909;52.202;9.876;2023-04-16T09:29:59;10.00;99.90
13673;DHT22;6909;52.202;9.876;2023-04-16T09:32:27;10.10;99.90
13673;DHT22;6909;52.202;9.876;2023-04-16T09:34:56;10.10;99.90
13673;DHT22;6909;52.202;9.876;2023-04-16T09:37:23;10.20;99.90
13673;DHT22;6909;52.202;9.876;2023-04-16T09:39:56;10.30;99.90
13673;DHT22;6909;52.202;9.876;2023-04-16T09:42:24;10.30;99.90
13673;DHT22;6909;52.202;9.876;2023-04-16T09:44:52;10.20;99.90
13673;DHT22;6909;52.202;9.876;2023-04-16T09:47:19;10.40;99.90
13673;DHT22;6909;52.202;9.876;2023-04-16T09:49:46;10.30;99.90
13673;DHT22;6909;52.202;9.876;2023-04-16T09:52:14;10.30;99.90
13673;DHT22;6909;52.202;9.876;2023-04-16T09:54:48;10.40;99.90
13673;DHT22;6909;52.202;9.876;2023-04-16T09:57:19;10.40;99.90
13673;DHT22;6909;52.202;9.876;2023-04-16T09:59:52;10.40;99.90
13673;DHT22;6909;52.202;9.876;2023-04-16T10:02:19;10.30;99.90
13673;DHT22;6909;52.202;9.876;2023-04-16T10:04:48;10.20;99.90
13673;DHT22;6909;52.202;9.876;2023-04-16T10:07:16;10.20;99.90
13673;DHT22;6909;52.202;9.876;2023-04-16T10:09:43;10.20;99.90
13673;DHT22;6909;52.202;9.876;2023-04-16T10:12:10;10.10;99.90
13673;DHT22;6909;52.202;9.876;2023-04-16T10:14:39;10.00;99.90
13673;DHT22;6909;52.202;9.876;2023-04-16T10:17:06;9.90;99.90
13673;DHT22;6909;52.202;9.876;2023-04-16T10:19:34;9.90;99.90
13673;DHT22;6909;52.202;9.876;2023-04-16T10:22:01;9.70;99.90
13673;DHT22;6909;52.202;9.876;2023-04-16T10:24:28;9.70;99.90
13673;DHT22;6909;52.202;9.876;2023-04-16T10:26:56;9.60;99.90
13673;DHT22;6909;52.202;9.876;2023-04-16T10:29:23;9.70;99.90
13673;DHT22;6909;52.202;9.876;2023-04-16T10:31:52;9.80;99.90
13673;DHT22;6909;52.202;9.876;2023-04-16T10:34:20;9.70;99.90
13673;DHT22;6909;52.202;9.876;2023-04-16T10:36:48;9.60;99.90
13673;DHT22;6909;52.202;9.876;2023-04-16T10:39:17;9.60;99.90
13673;DHT22;6909;52.202;9.876;2023-04-16T10:41:44;9.70;99.90
13673;DHT22;6909;52.202;9.876;2023-04-16T10:44:11;9.70;99.90
13673;DHT22;6909;52.202;9.876;2023-04-16T10:46:39;9.60;99.90
13673;DHT22;6909;52.202;9.876;2023-04-16T10:49:15;9.70;99.90
13673;DHT22;6909;52.202;9.876;2023-04-16T10:51:51;9.60;99.90
13673;DHT22;6909;52.202;9.876;2023-04-16T10:54:20;9.50;99.90
13673;DHT22;6909;52.202;9.876;2023-04-16T10:56:48;9.50;99.90
13673;DHT22;6909;52.202;9.876;2023-04-16T10:59:17;9.60;99.90
13673;DHT22;6909;52.202;9.876;2023-04-16T11:01:45;9.50;99.90
13673;DHT22;6909;52.202;9.876;2023-04-16T11:04:33;9.50;99.90
13673;DHT22;6909;52.202;9.876;2023-04-16T11:07:13;9.50;99.90
13673;DHT22;6909;52.202;9.876;2023-04-16T11:09:59;9.50;99.90
13673;DHT22;6909;52.202;9.876;2023-04-16T11:12:34;9.50;99.90
13673;DHT22;6909;52.202;9.876;2023-04-16T11:15:03;9.50;99.90
13673;DHT22;6909;52.202;9.876;2023-04-16T11:17:32;9.50;99.90
13673;DHT22;6909;52.202;9.876;2023-04-16T11:20:00;9.50;99.90
13673;DHT22;6909;52.202;9.876;2023-04-16T11:22:29;9.50;99.90
13673;DHT22;6909;52.202;9.876;2023-04-16T11:24:56;9.50;99.90
13673;DHT22;6909;52.202;9.876;2023-04-16T11:27:26;9.50;99.90
13673;DHT22;6909;52.202;9.876;2023-04-16T11:29:57;9.50;99.90
13673;DHT22;6909;52.202;9.876;2023-04-16T11:32:24;9.50;99.90
13673;DHT22;6909;52.202;9.876;2023-04-16T11:34:51;9.40;99.90
13673;DHT22;6909;52.202;9.876;2023-04-16T11:37:20;9.40;99.90
13673;DHT22;6909;52.202;9.876;2023-04-16T11:39:49;9.40;99.90
13673;DHT22;6909;52.202;9.876;2023-04-16T11:42:20;9.30;99.90
13673;DHT22;6909;52.202;9.876;2023-04-16T11:44:51;9.30;99.90
13673;DHT22;6909;52.202;9.876;2023-04-16T11:47:18;9.30;99.90
13673;DHT22;6909;52.202;9.876;2023-04-16T11:49:45;9.30;99.90
13673;DHT22;6909;52.202;9.876;2023-04-16T11:52:12;9.30;99.90
13673;DHT22;6909;52.202;9.876;2023-04-16T11:54:40;9.20;99.90
13673;DHT22;6909;52.202;9.876;2023-04-16T11:57:07;9.20;99.90
13673;DHT22;6909;52.202;9.876;2023-04-16T11:59:33;9.20;99.90
13673;DHT22;6909;52.202;9.876;2023-04-16T12:02:01;9.20;99.90
13673;DHT22;6909;52.202;9.876;2023-04-16T12:04:28;9.20;99.90
13673;DHT22;6909;52.202;9.876;2023-04-16T12:07:05;9.20;99.90
13673;DHT22;6909;52.202;9.876;2023-04-16T12:09:32;9.20;99.90
13673;DHT22;6909;52.202;9.876;2023-04-16T12:12:02;9.20;99.90
13673;DHT22;6909;52.202;9.876;2023-04-16T12:14:29;9.20;99.90
13673;DHT22;6909;52.202;9.876;2023-04-16T12:17:01;9.20;99.90
13673;DHT22;6909;52.202;9.876;2023-04-16T12:19:47;9.20;99.90
13673;DHT22;6909;52.202;9.876;2023-04-16T12:22:14;9.20;99.90
13673;DHT22;6909;52.202;9.876;2023-04-16T12:24:41;9.10;99.90
13673;DHT22;6909;52.202;9.876;2023-04-16T12:27:09;9.10;99.90
13673;DHT22;6909;52.202;9.876;2023-04-16T12:29:36;9.10;99.90
13673;DHT22;6909;52.202;9.876;2023-04-16T12:32:03;9.10;99.90
13673;DHT22;6909;52.202;9.876;2023-04-16T12:34:29;9.10;99.90
13673;DHT22;6909;52.202;9.876;2023-04-16T12:37:06;9.10;99.90
13673;DHT22;6909;52.202;9.876;2023-04-16T12:39:33;9.20;99.90
13673;DHT22;6909;52.202;9.876;2023-04-16T12:42:00;9.30;99.90
13673;DHT22;6909;52.202;9.876;2023-04-16T12:44:29;9.30;99.90
13673;DHT22;6909;52.202;9.876;2023-04-16T12:46:56;9.40;99.90
13673;DHT22;6909;52.202;9.876;2023-04-16T12:49:23;9.40;99.90
13673;DHT22;6909;52.202;9.876;2023-04-16T12:51:50;9.40;99.90
13673;DHT22;6909;52.202;9.876;2023-04-16T12:54:17;9.50;99.90
13673;DHT22;6909;52.202;9.876;2023-04-16T12:56:43;9.60;99.90
13673;DHT22;6909;52.202;9.876;2023-04-16T12:59:10;9.60;99.90
13673;DHT22;6909;52.202;9.876;2023-04-16T13:01:38;9.50;99.90
13673;DHT22;6909;52.202;9.876;2023-04-16T13:04:05;9.50;99.90
13673;DHT22;6909;52.202;9.876;2023-04-16T13:06:31;9.60;99.90
13673;DHT22;6909;52.202;9.876;2023-04-16T13:09:02;9.60;99.90
13673;DHT22;6909;52.202;9.876;2023-04-16T13:11:29;9.60;99.90
13673;DHT22;6909;52.202;9.876;2023-04-16T13:13:56;9.70;99.90
13673;DHT22;6909;52.202;9.876;2023-04-16T13:16:22;9.80;99.90
13673;DHT22;6909;52.202;9.876;2023-04-16T13:18:50;9.70;99.90
13673;DHT22;6909;52.202;9.876;2023-04-16T13:21:17;9.80;99.90
13673;DHT22;6909;52.202;9.876;2023-04-16T13:23:44;9.80;99.90
13673;DHT22;6909;52.202;9.876;2023-04-16T13:26:10;9.70;99.90
13673;DHT22;6909;52.202;9.876;2023-04-16T13:28:39;9.90;99.90
13673;DHT22;6909;52.202;9.876;2023-04-16T13:31:06;9.90;99.90
13673;DHT22;6909;52.202;9.876;2023-04-16T13:33:33;10.00;99.90
13673;DHT22;6909;52.202;9.876;2023-04-16T13:36:01;9.90;99.90
13673;DHT22;6909;52.202;9.876;2023-04-16T13:38:27;10.10;99.90
13673;DHT22;6909;52.202;9.876;2023-04-16T13:40:54;10.10;99.90
13673;DHT22;6909;52.202;9.876;2023-04-16T13:43:21;10.30;99.90
13673;DHT22;6909;52.202;9.876;2023-04-16T13:45:48;10.30;99.90
13673;DHT22;6909;52.202;9.876;2023-04-16T13:48:14;10.40;99.90
13673;DHT22;6909;52.202;9.876;2023-04-16T13:50:42;10.60;99.90
13673;DHT22;6909;52.202;9.876;2023-04-16T13:53:10;10.90;99.90
13673;DHT22;6909;52.202;9.876;2023-04-16T13:55:36;10.90;99.90
13673;DHT22;6909;52.202;9.876;2023-04-16T13:58:03;11.10;99.90
13673;DHT22;6909;52.202;9.876;2023-04-16T14:00:31;11.10;99.90
13673;DHT22;6909;52.202;9.876;2023-04-16T14:02:58;11.40;99.90
13673;DHT22;6909;52.202;9.876;2023-04-16T14:05:25;11.60;99.90
13673;DHT22;6909;52.202;9.876;2023-04-16T14:07:51;11.50;99.90
13673;DHT22;6909;52.202;9.876;2023-04-16T14:10:20;11.60;99.90
13673;DHT22;6909;52.202;9.876;2023-04-16T14:12:46;11.70;99.90
13673;DHT22;6909;52.202;9.876;2023-04-16T14:15:13;12.00;99.90
13673;DHT22;6909;52.202;9.876;2023-04-16T14:17:40;12.20;99.90
13673;DHT22;6909;52.202;9.876;2023-04-16T14:20:09;12.00;99.90
13673;DHT22;6909;52.202;9.876;2023-04-16T14:22:36;12.10;99.90
13673;DHT22;6909;52.202;9.876;2023-04-16T14:25:03;12.40;99.90
13673;DHT22;6909;52.202;9.876;2023-04-16T14:27:32;12.30;99.90
13673;DHT22;6909;52.202;9.876;2023-04-16T14:29:59;12.30;99.90
13673;DHT22;6909;52.202;9.876;2023-04-16T14:32:26;12.30;99.90
13673;DHT22;6909;52.202;9.876;2023-04-16T14:34:53;12.40;99.90
13673;DHT22;6909;52.202;9.876;2023-04-16T14:37:19;12.40;99.90
13673;DHT22;6909;52.202;9.876;2023-04-16T14:39:46;12.30;99.90
13673;DHT22;6909;52.202;9.876;2023-04-16T14:42:12;12.30;99.90
13673;DHT22;6909;52.202;9.876;2023-04-16T14:44:41;12.30;99.90
13673;DHT22;6909;52.202;9.876;2023-04-16T14:47:07;12.30;99.90
13673;DHT22;6909;52.202;9.876;2023-04-16T14:49:34;12.30;99.90
13673;DHT22;6909;52.202;9.876;2023-04-16T14:52:01;12.30;99.90
13673;DHT22;6909;52.202;9.876;2023-04-16T14:54:31;12.50;99.90
13673;DHT22;6909;52.202;9.876;2023-04-16T14:56:58;12.40;99.90
13673;DHT22;6909;52.202;9.876;2023-04-16T14:59:26;12.30;99.90
13673;DHT22;6909;52.202;9.876;2023-04-16T15:01:55;12.20;99.90
13673;DHT22;6909;52.202;9.876;2023-04-16T15:04:23;11.90;99.90
13673;DHT22;6909;52.202;9.876;2023-04-16T15:06:49;11.90;99.90
13673;DHT22;6909;52.202;9.876;2023-04-16T15:09:16;11.80;99.90
13673;DHT22;6909;52.202;9.876;2023-04-16T15:11:43;11.80;99.90
13673;DHT22;6909;52.202;9.876;2023-04-16T15:14:10;11.90;99.90
13673;DHT22;6909;52.202;9.876;2023-04-16T15:16:36;11.80;99.90
13673;DHT22;6909;52.202;9.876;2023-04-16T15:19:04;11.50;99.90
13673;DHT22;6909;52.202;9.876;2023-04-16T15:21:31;11.40;99.90
13673;DHT22;6909;52.202;9.876;2023-04-16T15:23:58;11.40;99.90
13673;DHT22;6909;52.202;9.876;2023-04-16T15:26:25;11.30;99.90
13673;DHT22;6909;52.202;9.876;2023-04-16T15:28:58;11.30;99.90
13673;DHT22;6909;52.202;9.876;2023-04-16T15:31:25;11.40;99.90
13673;DHT22;6909;52.202;9.876;2023-04-16T15:33:52;11.40;99.90
13673;DHT22;6909;52.202;9.876;2023-04-16T15:36:20;11.40;99.90
13673;DHT22;6909;52.202;9.876;2023-04-16T15:38:47;11.50;99.90
13673;DHT22;6909;52.202;9.876;2023-04-16T15:41:14;11.50;99.90
13673;DHT22;6909;52.202;9.876;2023-04-16T15:43:40;11.50;99.90
13673;DHT22;6909;52.202;9.876;2023-04-16T15:46:07;11.50;99.90
13673;DHT22;6909;52.202;9.876;2023-04-16T15:48:34;11.60;99.90
13673;DHT22;6909;52.202;9.876;2023-04-16T15:51:01;11.70;99.90
13673;DHT22;6909;52.202;9.876;2023-04-16T15:53:29;11.90;99.90
13673;DHT22;6909;52.202;9.876;2023-04-16T15:55:56;12.00;99.90
13673;DHT22;6909;52.202;9.876;2023-04-16T15:58:22;12.00;99.90